Time;durP1;ratioP1;P1;durP2;ratioP2;P2;SDS_P1;SDS_P2;PMS_P1;PMS_P2;Temp;Humidity;BMP_temperature;BMP_pressure;BME280_temperature;BME280_humidity;BME280_pressure;Samples;Min_cycle;Max_cycle;Signal;HPM_P1;HPM_P2
2021/06/09 00:01:11;;;;;;;;;;;;;;;25.16;45.50;100017.55;1770210;81;20253;-78
2021/06/09 00:03:37;;;;;;;;;;;;;;;25.15;45.59;100015.91;1769991;81;20186;-78
2021/06/09 00:06:03;;;;;;;;;;;;;;;25.16;45.69;100010.70;1770113;81;20182;-78
2021/06/09 00:08:29;;;;;;;;;;;;;;;25.18;45.71;100011.27;1769940;81;20135;-78
2021/06/09 00:10:55;;;;;;;;;;;;;;;25.20;45.72;100004.97;1769441;81;20195;-78
2021/06/09 00:13:24;;;;;;;;;;;;;;;25.19;45.75;100007.44;1769744;81;20164;-78
2021/06/09 00:15:50;;;;;;;;;;;;;;;25.20;45.81;100010.45;1769662;81;20192;-78
2021/06/09 00:18:16;;;;;;;;;;;;;;;25.19;45.83;100008.80;1769575;81;20164;-78
2021/06/09 00:20:42;;;;;;;;;;;;;;;25.17;45.86;100001.41;1769731;81;20200;-78
2021/06/09 00:23:11;;;;;;;;;;;;;;;25.17;45.86;99999.22;1768321;81;20709;-78
2021/06/09 00:25:38;;;;;;;;;;;;;;;25.16;45.88;100001.11;1738991;82;20218;-78
2021/06/09 00:28:05;;;;;;;;;;;;;;;25.12;45.88;99993.16;1739254;82;20261;-78
2021/06/09 00:30:33;;;;;;;;;;;;;;;25.11;45.92;100005.73;1739461;82;20257;-78
2021/06/09 00:33:00;;;;;;;;;;;;;;;25.08;45.95;100001.62;1739295;82;20482;-78
2021/06/09 00:35:26;;;;;;;;;;;;;;;25.06;45.98;100001.84;1739512;82;20174;-77
2021/06/09 00:37:53;;;;;;;;;;;;;;;25.05;46.03;99998.01;1738931;82;20487;-77
2021/06/09 00:40:19;;;;;;;;;;;;;;;25.04;46.13;99995.81;1739008;82;20183;-78
2021/06/09 00:43:06;;;;;;;;;;;;;;;25.04;46.19;99989.52;1739095;82;20182;-78
2021/06/09 00:45:35;;;;;;;;;;;;;;;25.04;46.20;99995.81;1765009;81;20544;-78
2021/06/09 00:48:01;;;;;;;;;;;;;;;25.08;46.17;100002.17;1768269;81;20235;-78
2021/06/09 00:50:27;;;;;;;;;;;;;;;25.08;46.16;100003.55;1769284;81;20214;-78
2021/06/09 00:52:53;;;;;;;;;;;;;;;25.05;46.17;100000.20;1769986;81;20273;-78
2021/06/09 00:55:19;;;;;;;;;;;;;;;25.06;46.16;100005.13;1723135;81;20171;-78
2021/06/09 00:57:46;;;;;;;;;;;;;;;25.04;46.18;100004.03;1721349;83;20154;-78
2021/06/09 01:00:12;;;;;;;;;;;;;;;25.03;46.19;100002.94;1721249;82;20443;-78
2021/06/09 01:02:38;;;;;;;;;;;;;;;25.01;46.23;99995.52;1721571;82;20143;-78
2021/06/09 01:05:06;;;;;;;;;;;;;;;25.00;46.21;100000.72;1720880;81;20135;-78
2021/06/09 01:07:38;;;;;;;;;;;;;;;24.99;46.21;99999.90;1721292;83;20194;-78
2021/06/09 01:10:06;;;;;;;;;;;;;;;24.97;46.28;99995.76;1721090;83;20127;-78
2021/06/09 01:12:32;;;;;;;;;;;;;;;24.95;46.29;100002.88;1721196;83;20170;-81
2021/06/09 01:14:58;;;;;;;;;;;;;;;24.93;46.31;100002.30;1721434;81;20276;-79
2021/06/09 01:17:23;;;;;;;;;;;;;;;24.94;46.34;100005.34;1722575;83;20240;-78
2021/06/09 01:19:49;;;;;;;;;;;;;;;24.95;46.37;99993.84;1711943;83;20740;-80
2021/06/09 01:22:15;;;;;;;;;;;;;;;24.96;46.37;99996.86;1709635;83;20158;-80
2021/06/09 01:24:41;;;;;;;;;;;;;;;24.94;46.33;99990.28;1783150;79;20173;-79
2021/06/09 01:27:07;;;;;;;;;;;;;;;24.96;46.29;99998.23;1777606;79;20200;-79
2021/06/09 01:29:36;;;;;;;;;;;;;;;24.95;46.31;99993.84;1807023;79;20185;-79
2021/06/09 01:32:02;;;;;;;;;;;;;;;24.93;46.31;100004.22;1807334;79;20178;-79
2021/06/09 01:34:28;;;;;;;;;;;;;;;24.92;46.34;100003.40;1807715;79;20135;-79
2021/06/09 01:36:55;;;;;;;;;;;;;;;24.91;46.37;99999.56;1806856;79;20153;-78
2021/06/09 01:39:21;;;;;;;;;;;;;;;24.90;46.44;99999.29;1807492;79;20173;-79
2021/06/09 01:41:48;;;;;;;;;;;;;;;24.87;46.49;100001.17;1808200;79;20208;-78
2021/06/09 01:44:14;;;;;;;;;;;;;;;24.86;46.51;99998.16;1792390;79;20121;-77
2021/06/09 01:46:41;;;;;;;;;;;;;;;24.88;46.55;100004.19;1764638;81;20177;-78
2021/06/09 01:49:10;;;;;;;;;;;;;;;24.88;46.55;99994.60;1764242;81;20137;-78
2021/06/09 01:51:36;;;;;;;;;;;;;;;24.89;46.48;99998.98;1764317;81;20183;-77
2021/06/09 01:54:06;;;;;;;;;;;;;;;24.88;46.34;100004.19;1735695;82;20145;-78
2021/06/09 01:56:32;;;;;;;;;;;;;;;24.88;46.24;100008.30;1741057;82;20130;-77
2021/06/09 01:59:13;;;;;;;;;;;;;;;24.87;46.20;100011.59;1741475;82;20133;-77
2021/06/09 02:01:40;;;;;;;;;;;;;;;24.72;46.52;100006.83;1744629;82;20116;-77
2021/06/09 02:04:08;;;;;;;;;;;;;;;24.84;46.20;100009.91;1723434;82;20167;-78
2021/06/09 02:06:37;;;;;;;;;;;;;;;24.85;46.10;100010.22;1723304;82;20163;-78
2021/06/09 02:09:03;;;;;;;;;;;;;;;24.58;46.56;100008.37;1722838;83;20163;-78
2021/06/09 02:11:29;;;;;;;;;;;;;;;24.36;46.96;100013.07;1722191;83;20174;-78
2021/06/09 02:13:55;;;;;;;;;;;;;;;24.68;46.26;100008.44;1726670;82;20174;-78
2021/06/09 02:16:21;;;;;;;;;;;;;;;24.74;46.11;100007.38;1722167;83;20268;-78
2021/06/09 02:18:47;;;;;;;;;;;;;;;24.76;46.10;100005.22;1722522;82;20135;-78
2021/06/09 02:21:13;;;;;;;;;;;;;;;24.77;46.01;100004.13;1723834;83;20635;-78
2021/06/09 02:23:43;;;;;;;;;;;;;;;24.78;46.00;100002.21;1702174;83;20150;-78
2021/06/09 02:26:07;;;;;;;;;;;;;;;24.75;45.99;100006.31;1723474;83;20195;-78
2021/06/09 02:28:33;;;;;;;;;;;;;;;24.74;45.98;100001.08;1722291;83;20925;-78
2021/06/09 02:31:00;;;;;;;;;;;;;;;24.72;45.96;100014.23;1722172;83;20195;-77
2021/06/09 02:33:27;;;;;;;;;;;;;;;24.72;45.95;100010.12;1722155;82;20171;-78
2021/06/09 02:35:54;;;;;;;;;;;;;;;24.72;45.88;100014.23;1748631;82;20159;-78
2021/06/09 02:38:20;;;;;;;;;;;;;;;24.71;45.88;100010.67;1748362;82;20190;-78
2021/06/09 02:40:49;;;;;;;;;;;;;;;24.69;45.89;100008.72;1748583;82;20289;-77
2021/06/09 02:43:15;;;;;;;;;;;;;;;24.70;45.91;100016.39;1747450;82;20187;-77
2021/06/09 02:45:45;;;;;;;;;;;;;;;24.72;45.92;100011.48;1749313;82;20181;-77
2021/06/09 02:48:11;;;;;;;;;;;;;;;24.76;45.94;100022.20;1749050;82;20170;-77
2021/06/09 02:50:38;;;;;;;;;;;;;;;24.80;45.87;100011.01;1749523;82;20233;-77
2021/06/09 02:53:20;;;;;;;;;;;;;;;24.85;45.80;100008.30;1749792;82;20174;-79
2021/06/09 02:56:20;;;;;;;;;;;;;;;24.70;46.12;100016.39;1747280;82;20158;-78
2021/06/09 02:58:58;;;;;;;;;;;;;;;24.46;46.63;100008.53;1749797;82;20158;-78
2021/06/09 03:01:28;;;;;;;;;;;;;;;24.45;46.72;100009.63;1750855;82;20175;-79
2021/06/09 03:04:04;;;;;;;;;;;;;;;24.48;46.71;100016.48;1751566;82;20143;-78
2021/06/09 03:06:52;;;;;;;;;;;;;;;24.52;46.72;100014.88;1748002;82;20166;-79
2021/06/09 03:09:28;;;;;;;;;;;;;;;24.53;46.72;100011.07;1751935;82;20408;-77
2021/06/09 03:12:03;;;;;;;;;;;;;;;24.57;46.69;100015.45;1751438;82;20091;-78
2021/06/09 03:17:12;;;;;;;;;;;;;;;24.60;46.59;100011.66;1752564;82;20209;-81
2021/06/09 03:19:41;;;;;;;;;;;;;;;24.60;46.59;100007.55;1719904;82;20158;-78
2021/06/09 03:22:20;;;;;;;;;;;;;;;24.62;46.59;100012.75;1751158;82;20135;-78
2021/06/09 03:24:47;;;;;;;;;;;;;;;24.63;46.59;100019.36;1751151;82;20163;-81
2021/06/09 03:27:25;;;;;;;;;;;;;;;24.63;46.56;100013.88;1751742;82;20135;-82
2021/06/09 03:29:54;;;;;;;;;;;;;;;24.65;46.63;100021.83;1764826;81;20399;-81
2021/06/09 03:32:32;;;;;;;;;;;;;;;24.65;46.56;100022.65;1743842;82;20167;-81
2021/06/09 03:35:08;;;;;;;;;;;;;;;24.64;46.47;100011.42;1765547;81;20127;-81
2021/06/09 03:37:41;;;;;;;;;;;;;;;24.65;46.57;100022.65;1733650;82;20166;-80
2021/06/09 03:40:07;;;;;;;;;;;;;;;24.63;46.57;100017.99;1730593;82;20436;-83
2021/06/09 03:42:34;;;;;;;;;;;;;;;24.63;46.63;100019.91;1759454;81;20584;-82
2021/06/09 03:45:00;;;;;;;;;;;;;;;24.61;46.72;100016.59;1723909;82;20184;-81
2021/06/09 03:47:26;;;;;;;;;;;;;;;24.60;46.67;100010.84;1714104;83;20422;-81
2021/06/09 03:49:53;;;;;;;;;;;;;;;24.59;46.73;100017.41;1716720;82;20175;-82
2021/06/09 03:52:19;;;;;;;;;;;;;;;24.55;46.80;100017.92;1728808;82;20194;-81
2021/06/09 03:54:48;;;;;;;;;;;;;;;24.54;46.85;100023.66;1712637;83;20173;-80
2021/06/09 03:57:14;;;;;;;;;;;;;;;24.55;46.80;100026.68;1712559;83;20133;-81
2021/06/09 03:59:47;;;;;;;;;;;;;;;24.54;46.76;100035.44;1692560;84;20557;-80
2021/06/09 04:02:12;;;;;;;;;;;;;;;24.55;46.82;100037.09;1714711;84;20180;-79
2021/06/09 04:04:38;;;;;;;;;;;;;;;24.56;46.79;100032.44;1694993;84;20153;-79
2021/06/09 04:07:05;;;;;;;;;;;;;;;24.58;46.74;100033.02;1714019;84;20186;-80
2021/06/09 04:09:32;;;;;;;;;;;;;;;24.62;46.73;100034.14;1712787;84;20184;-80
2021/06/09 04:12:00;;;;;;;;;;;;;;;24.67;46.64;100041.58;1722517;82;20303;-80
2021/06/09 04:14:35;;;;;;;;;;;;;;;24.71;46.59;100041.34;1727883;82;20214;-80
2021/06/09 04:17:02;;;;;;;;;;;;;;;24.75;46.63;100041.92;1740513;82;20413;-80
2021/06/09 04:19:29;;;;;;;;;;;;;;;24.81;46.47;100038.67;1740291;82;20143;-80
2021/06/09 04:21:55;;;;;;;;;;;;;;;24.86;46.47;100036.52;1731642;82;20480;-80
2021/06/09 04:24:21;;;;;;;;;;;;;;;24.90;46.49;100033.54;1729931;82;20211;-80
2021/06/09 04:26:47;;;;;;;;;;;;;;;24.96;46.38;100032.47;1722402;82;20407;-80
2021/06/09 04:29:14;;;;;;;;;;;;;;;25.01;46.27;100034.70;1733303;82;20167;-80
2021/06/09 04:31:40;;;;;;;;;;;;;;;25.08;46.18;100035.06;1728701;82;20120;-80
2021/06/09 04:34:06;;;;;;;;;;;;;;;25.15;46.22;100037.01;1737451;82;20132;-80
2021/06/09 04:36:31;;;;;;;;;;;;;;;25.21;45.92;100034.05;1735437;82;20209;-79
2021/06/09 04:38:57;;;;;;;;;;;;;;;25.27;45.79;100038.46;1728158;82;20188;-80
2021/06/09 04:41:25;;;;;;;;;;;;;;;25.32;45.68;100043.14;1722909;82;20256;-82
2021/06/09 04:43:52;;;;;;;;;;;;;;;25.37;45.64;100040.98;1731629;82;20330;-79
2021/06/09 04:46:21;;;;;;;;;;;;;;;25.41;45.53;100036.06;1727223;82;20170;-79
2021/06/09 04:49:00;;;;;;;;;;;;;;;25.50;45.46;100033.64;1727570;82;20439;-80
2021/06/09 04:51:30;;;;;;;;;;;;;;;25.56;45.12;100042.98;1727863;82;20139;-79
2021/06/09 04:53:57;;;;;;;;;;;;;;;25.63;45.06;100041.94;1737248;82;20464;-78
2021/06/09 04:56:23;;;;;;;;;;;;;;;25.69;44.97;100043.05;1731946;82;20207;-79
2021/06/09 04:58:49;;;;;;;;;;;;;;;25.74;44.86;100044.98;1739410;82;20206;-79
2021/06/09 05:01:15;;;;;;;;;;;;;;;25.80;44.88;100043.41;1718106;82;20282;-81
2021/06/09 05:03:42;;;;;;;;;;;;;;;25.85;44.86;100052.76;1736575;82;20184;-80
2021/06/09 05:06:08;;;;;;;;;;;;;;;25.91;45.03;100051.67;1724658;81;20173;-80
2021/06/09 05:08:34;;;;;;;;;;;;;;;25.99;44.92;100055.27;1720922;80;20607;-82
2021/06/09 05:11:00;;;;;;;;;;;;;;;26.06;44.95;100055.82;1709136;82;20280;-80
2021/06/09 05:13:33;;;;;;;;;;;;;;;26.12;44.86;100052.56;1721740;82;20189;-80
2021/06/09 05:16:05;;;;;;;;;;;;;;;26.22;44.75;100047.91;1716977;82;20186;-80
2021/06/09 05:18:42;;;;;;;;;;;;;;;26.28;44.48;100044.06;1723970;80;20097;-81
2021/06/09 05:21:13;;;;;;;;;;;;;;;26.32;44.35;100045.73;1720309;82;20105;-80
2021/06/09 05:23:40;;;;;;;;;;;;;;;26.36;44.43;100048.20;1749780;81;20165;-80
2021/06/09 05:26:06;;;;;;;;;;;;;;;26.40;44.35;100051.23;1702548;83;20140;-77
2021/06/09 05:28:34;;;;;;;;;;;;;;;26.43;44.34;100044.66;1725797;80;20148;-80
2021/06/09 05:31:00;;;;;;;;;;;;;;;26.51;44.41;100035.06;1720691;82;20220;-80
2021/06/09 05:33:27;;;;;;;;;;;;;;;26.56;44.27;100046.87;1700337;82;20453;-79
2021/06/09 05:35:54;;;;;;;;;;;;;;;26.59;44.19;100042.77;1719970;80;20195;-78
2021/06/09 05:38:21;;;;;;;;;;;;;;;26.60;44.18;100044.41;1722294;80;20264;-77
2021/06/09 05:40:48;;;;;;;;;;;;;;;26.62;44.18;100042.23;1721438;80;20300;-77
2021/06/09 05:43:21;;;;;;;;;;;;;;;27.08;43.30;100038.06;1718307;80;20252;-78
2021/06/09 05:45:47;;;;;;;;;;;;;;;27.18;43.04;100036.69;1715913;82;20531;-78
2021/06/09 05:48:13;;;;;;;;;;;;;;;27.24;42.81;100048.50;1739014;79;20214;-78
2021/06/09 05:50:39;;;;;;;;;;;;;;;27.29;42.45;100046.55;1738848;81;20306;-78
2021/06/09 05:53:31;;;;;;;;;;;;;;;27.35;42.53;100052.06;1723804;81;20186;-79
2021/06/09 05:55:46;;;;;;;;;;;;;;;27.40;42.40;100054.24;1706665;82;20170;-78
2021/06/09 05:58:18;;;;;;;;;;;;;;;27.15;42.87;100059.23;1726806;80;20167;-78
2021/06/09 06:00:44;;;;;;;;;;;;;;;27.07;43.13;100058.42;1726824;80;20158;-79
2021/06/09 06:03:11;;;;;;;;;;;;;;;27.09;43.16;100063.11;1718316;82;20143;-78
2021/06/09 06:05:39;;;;;;;;;;;;;;;27.18;43.16;100060.06;1731323;81;20178;-79
2021/06/09 06:08:05;;;;;;;;;;;;;;;27.27;43.19;100057.02;1725255;82;20184;-78
2021/06/09 06:10:31;;;;;;;;;;;;;;;27.41;43.02;100059.19;1720005;80;20229;-79
2021/06/09 06:12:59;;;;;;;;;;;;;;;27.94;42.08;100058.20;1723943;80;20196;-79
2021/06/09 06:15:26;;;;;;;;;;;;;;;28.19;41.61;100057.22;1715028;81;20289;-77
2021/06/09 06:17:54;;;;;;;;;;;;;;;28.39;40.71;100054.91;1714591;81;20238;-78
2021/06/09 06:20:22;;;;;;;;;;;;;;;28.56;40.49;100058.09;1713632;81;20452;-78
2021/06/09 06:22:49;;;;;;;;;;;;;;;28.75;40.43;100060.97;1722886;82;20213;-78
2021/06/09 06:25:17;;;;;;;;;;;;;;;28.94;39.75;100055.59;1723104;80;20145;-79
2021/06/09 06:27:45;;;;;;;;;;;;;;;29.11;39.35;100055.16;1720978;81;20146;-79
2021/06/09 06:30:21;;;;;;;;;;;;;;;29.28;39.17;100056.92;1717845;80;20205;-79
2021/06/09 06:32:50;;;;;;;;;;;;;;;29.44;38.77;100054.27;1722027;82;20206;-80
2021/06/09 06:35:21;;;;;;;;;;;;;;;29.64;38.61;100055.16;1689236;82;20147;-80
2021/06/09 06:37:48;;;;;;;;;;;;;;;29.82;38.14;100051.05;1722314;80;20141;-78
2021/06/09 06:40:31;;;;;;;;;;;;;;;;;;;;;
2021/06/09 06:43:08;;;;;;;;;;;;;;;30.21;37.43;100056.10;1695293;82;20215;-79
2021/06/09 06:45:57;;;;;;;;;;;;;;;;;;;;;
2021/06/09 06:48:28;;;;;;;;;;;;;;;30.60;36.57;100064.05;1611204;87;20173;-79
2021/06/09 06:51:03;;;;;;;;;;;;;;;30.80;36.15;100062.38;1656865;83;20587;-78
2021/06/09 06:53:30;;;;;;;;;;;;;;;30.99;35.87;100055.97;1662741;83;20191;-79
2021/06/09 06:56:00;;;;;;;;;;;;;;;31.18;35.76;100059.48;1682095;82;20214;-78
2021/06/09 06:58:38;;;;;;;;;;;;;;;31.36;35.27;100063.33;1682823;83;20188;-78
2021/06/09 07:01:07;;;;;;;;;;;;;;;31.51;34.84;100060.81;1633863;83;20234;-78
2021/06/09 07:03:36;;;;;;;;;;;;;;;31.68;34.46;100056.87;1681350;83;20154;-79
2021/06/09 07:06:05;;;;;;;;;;;;;;;31.50;34.58;100055.84;1677926;83;20602;-78
2021/06/09 07:08:33;;;;;;;;;;;;;;;31.85;34.28;100061.00;1658658;83;20580;-79
2021/06/09 07:11:04;;;;;;;;;;;;;;;31.71;34.44;100054.88;1680442;82;20213;-79
2021/06/09 07:13:34;;;;;;;;;;;;;;;31.81;34.44;100058.81;1674045;82;20210;-80
2021/06/09 07:16:02;;;;;;;;;;;;;;;32.30;33.98;100064.70;1738471;80;20172;-79
2021/06/09 07:18:30;;;;;;;;;;;;;;;32.05;34.45;100066.08;1711176;81;20226;-80
2021/06/09 07:20:56;;;;;;;;;;;;;;;32.18;33.96;100071.34;1738678;81;20715;-79
2021/06/09 07:23:23;;;;;;;;;;;;;;;32.31;33.65;100069.92;1736155;79;20203;-79
2021/06/09 07:25:51;;;;;;;;;;;;;;;32.42;33.32;100068.31;1698720;81;20257;-79
2021/06/09 07:28:20;;;;;;;;;;;;;;;32.51;33.29;100070.02;1703142;82;20200;-79
2021/06/09 07:30:48;;;;;;;;;;;;;;;32.96;32.31;100069.23;1720528;81;20174;-79
2021/06/09 07:33:14;;;;;;;;;;;;;;;33.19;32.15;100068.63;1700565;81;20553;-79
2021/06/09 07:35:54;;;;;;;;;;;;;;;33.31;31.87;100064.69;1717058;81;20192;-80
2021/06/09 07:38:21;;;;;;;;;;;;;;;33.35;31.58;100066.27;1701911;81;20328;-79
2021/06/09 07:40:59;;;;;;;;;;;;;;;33.15;31.80;100059.30;1721733;82;20214;-79
2021/06/09 07:43:29;;;;;;;;;;;;;;;33.05;31.77;100070.10;1719064;80;20151;-79
2021/06/09 07:45:55;;;;;;;;;;;;;;;33.03;31.55;100064.06;1718013;81;20155;-80
2021/06/09 07:48:25;;;;;;;;;;;;;;;33.06;31.72;100062.02;1718464;81;20182;-78
2021/06/09 07:50:53;;;;;;;;;;;;;;;33.05;31.45;100062.59;1718539;81;20171;-78
2021/06/09 07:53:22;;;;;;;;;;;;;;;33.04;31.50;100065.13;1697243;81;20196;-80
2021/06/09 07:55:49;;;;;;;;;;;;;;;33.06;31.62;100067.00;1701764;80;20182;-77
2021/06/09 07:58:16;;;;;;;;;;;;;;;33.06;31.59;100065.61;1719352;81;20133;-80
2021/06/09 08:00:42;;;;;;;;;;;;;;;33.07;31.35;100058.13;1717775;80;20752;-77
2021/06/09 08:03:09;;;;;;;;;;;;;;;33.06;31.57;100062.84;1720486;80;20202;-79
2021/06/09 08:05:35;;;;;;;;;;;;;;;33.05;31.41;100054.84;1718444;81;20184;-77
2021/06/09 08:08:01;;;;;;;;;;;;;;;33.03;31.77;100054.35;1718032;81;20167;-78
2021/06/09 08:10:31;;;;;;;;;;;;;;;33.06;31.84;100057.86;1742564;79;20179;-79
2021/06/09 08:12:57;;;;;;;;;;;;;;;33.03;31.60;100062.11;1721960;80;20216;-78
2021/06/09 08:15:23;;;;;;;;;;;;;;;33.04;31.58;100059.58;1740626;79;20158;-79
2021/06/09 08:17:49;;;;;;;;;;;;;;;33.06;31.62;100063.41;1720833;81;20169;-78
2021/06/09 08:20:25;;;;;;;;;;;;;;;33.07;31.41;100065.07;1721715;80;20199;-79
2021/06/09 08:22:53;;;;;;;;;;;;;;;33.08;31.58;100061.15;1716878;80;20142;-78
2021/06/09 08:25:24;;;;;;;;;;;;;;;33.12;31.57;100059.38;1737899;79;20158;-79
2021/06/09 08:27:52;;;;;;;;;;;;;;;33.15;31.57;100057.91;1698786;80;20195;-80
2021/06/09 08:30:19;;;;;;;;;;;;;;;33.16;31.29;100064.55;1725933;81;20205;-79
2021/06/09 08:32:46;;;;;;;;;;;;;;;33.18;31.36;100056.70;1715433;80;20443;-79
2021/06/09 08:35:13;;;;;;;;;;;;;;;33.20;31.42;100059.15;1716555;80;20491;-79
2021/06/09 08:37:39;;;;;;;;;;;;;;;33.20;30.84;100055.80;1711371;80;20194;-80
2021/06/09 08:40:09;;;;;;;;;;;;;;;33.24;31.07;100062.36;1718322;80;20179;-78
2021/06/09 08:42:36;;;;;;;;;;;;;;;33.25;30.83;100058.47;1722604;81;20171;-78
2021/06/09 08:45:05;;;;;;;;;;;;;;;33.22;30.83;100056.32;1739728;79;20186;-78
2021/06/09 08:47:32;;;;;;;;;;;;;;;33.20;30.86;100064.13;1745700;79;20170;-78
2021/06/09 08:49:59;;;;;;;;;;;;;;;33.15;30.75;100060.11;1743039;79;20215;-80
2021/06/09 08:52:28;;;;;;;;;;;;;;;33.17;31.12;100060.63;1720842;80;21280;-77
2021/06/09 08:54:54;;;;;;;;;;;;;;;33.53;30.54;100070.20;1739083;79;20179;-78
2021/06/09 08:57:20;;;;;;;;;;;;;;;33.57;30.43;100065.65;1715993;80;20177;-78
2021/06/09 08:59:47;;;;;;;;;;;;;;;33.57;30.03;100066.22;1716003;80;20184;-78
2021/06/09 09:02:35;;;;;;;;;;;;;;;33.57;30.11;100064.84;1715738;80;20217;-78
2021/06/09 09:04:59;;;;;;;;;;;;;;;33.59;30.46;100056.98;1713123;80;20203;-78
2021/06/09 09:07:28;;;;;;;;;;;;;;;33.20;30.93;100059.15;1714627;80;20159;-79
2021/06/09 09:09:55;;;;;;;;;;;;;;;33.45;30.52;100051.55;1718721;80;20192;-79
2021/06/09 09:12:21;;;;;;;;;;;;;;;33.50;30.42;100053.36;1708262;80;20187;-79
2021/06/09 09:14:48;;;;;;;;;;;;;;;33.08;30.99;100050.86;1678944;82;20216;-79
2021/06/09 09:17:18;;;;;;;;;;;;;;;33.28;30.99;100048.09;1717598;80;20962;-81
2021/06/09 09:19:46;;;;;;;;;;;;;;;33.39;30.87;100046.44;1718574;80;20261;-79
2021/06/09 09:22:32;;;;;;;;;;;;;;;33.38;30.73;100052.54;1743315;79;20977;-79
2021/06/09 09:24:58;;;;;;;;;;;;;;;33.33;30.57;100047.95;1743372;79;20172;-79
2021/06/09 09:27:29;;;;;;;;;;;;;;;33.29;30.93;100053.07;1692924;82;20278;-79
2021/06/09 09:30:02;;;;;;;;;;;;;;;33.24;30.95;100049.05;1700112;82;20429;-78
2021/06/09 09:32:28;;;;;;;;;;;;;;;32.84;31.29;100043.44;1715396;82;20157;-81
2021/06/09 09:35:16;;;;;;;;;;;;;;;32.65;31.28;100042.23;1724118;81;20183;-78
2021/06/09 09:37:50;;;;;;;;;;;;;;;32.54;31.58;100039.48;1716589;80;20526;-78
2021/06/09 09:40:18;;;;;;;;;;;;;;;32.42;31.99;100041.41;1740195;79;20155;-78
2021/06/09 09:42:51;;;;;;;;;;;;;;;32.33;31.93;100043.27;1739379;79;20157;-78
2021/06/09 09:45:23;;;;;;;;;;;;;;;32.20;31.89;100033.86;1740185;79;20167;-79
2021/06/09 09:48:12;;;;;;;;;;;;;;;32.09;32.08;100033.85;1714733;80;20178;-79
2021/06/09 09:50:51;;;;;;;;;;;;;;;32.01;32.64;100036.78;1744095;80;20138;-79
2021/06/09 09:53:24;;;;;;;;;;;;;;;31.95;32.68;100028.92;1731331;81;20191;-79
2021/06/09 09:56:11;;;;;;;;;;;;;;;31.88;32.65;100025.73;1708498;82;20532;-78
2021/06/09 09:58:40;;;;;;;;;;;;;;;31.81;32.49;100024.19;1749340;80;20590;-78
2021/06/09 10:01:09;;;;;;;;;;;;;;;31.76;32.68;100027.08;1745785;80;20208;-79
2021/06/09 10:03:37;;;;;;;;;;;;;;;31.69;32.78;100022.50;1747302;80;20176;-78
2021/06/09 10:06:24;;;;;;;;;;;;;;;31.68;32.79;100031.13;1740484;80;20200;-78
2021/06/09 10:08:50;;;;;;;;;;;;;;;31.64;32.77;100027.34;1756280;79;20202;-77
2021/06/09 10:11:17;;;;;;;;;;;;;;;31.60;32.63;100018.01;1754963;79;20220;-77
2021/06/09 10:13:43;;;;;;;;;;;;;;;31.53;32.77;100022.02;1754299;79;20653;-77
2021/06/09 10:16:29;;;;;;;;;;;;;;;31.51;33.04;100013.75;1754186;79;20203;-78
2021/06/09 10:19:07;;;;;;;;;;;;;;;31.48;33.28;100013.83;1760064;79;20148;-77
2021/06/09 10:21:45;;;;;;;;;;;;;;;31.42;32.71;100015.61;1759476;79;20182;-78
2021/06/09 10:24:11;;;;;;;;;;;;;;;31.35;32.66;100004.14;1754018;79;20187;-76
2021/06/09 10:26:38;;;;;;;;;;;;;;;31.26;32.51;100014.51;1758546;79;20174;-77
2021/06/09 10:29:11;;;;;;;;;;;;;;;31.21;32.90;100017.38;1755231;80;20175;-77
2021/06/09 10:31:42;;;;;;;;;;;;;;;31.18;32.98;100005.53;1755420;79;20171;-78
2021/06/09 10:34:07;;;;;;;;;;;;;;;31.18;32.90;100006.91;1757775;79;21399;-79
2021/06/09 10:36:36;;;;;;;;;;;;;;;31.17;32.25;100006.66;1756284;79;20185;-76
2021/06/09 10:39:05;;;;;;;;;;;;;;;31.14;32.39;100001.73;1751289;79;20151;-77
2021/06/09 10:41:34;;;;;;;;;;;;;;;31.13;32.77;100008.40;1759253;79;20180;-79
2021/06/09 10:44:02;;;;;;;;;;;;;;;31.13;32.66;100004.81;1759132;79;20199;-78
2021/06/09 10:46:28;;;;;;;;;;;;;;;31.12;32.49;99999.03;1758099;79;20196;-77
2021/06/09 10:48:56;;;;;;;;;;;;;;;31.11;32.60;99994.03;1760050;79;20173;-77
2021/06/09 10:51:23;;;;;;;;;;;;;;;31.11;32.74;100002.91;1756934;79;20658;-78
2021/06/09 10:53:50;;;;;;;;;;;;;;;31.07;33.02;99990.27;1755610;79;20229;-77
2021/06/09 10:56:20;;;;;;;;;;;;;;;31.04;32.90;99990.87;1741878;80;21155;-77
2021/06/09 10:58:46;;;;;;;;;;;;;;;31.03;33.22;99987.85;1739966;79;20788;-77
2021/06/09 11:01:17;;;;;;;;;;;;;;;31.00;32.91;99989.27;1760043;80;20221;-79
2021/06/09 11:03:53;;;;;;;;;;;;;;;30.99;32.74;99977.14;1752960;80;20181;-80
2021/06/09 11:06:12;;;;;;;;;;;;;;;30.99;32.87;99975.76;1750722;80;20179;-77
2021/06/09 11:08:39;;;;;;;;;;;;;;;30.96;32.93;99963.91;1755375;79;20180;-77
2021/06/09 11:11:17;;;;;;;;;;;;;;;30.93;32.77;99966.74;1762249;79;20226;-78
2021/06/09 11:13:47;;;;;;;;;;;;;;;30.88;33.07;99967.38;1736152;80;20190;-79
2021/06/09 11:16:13;;;;;;;;;;;;;;;30.87;32.92;99961.59;1759792;80;20213;-79
2021/06/09 11:18:56;;;;;;;;;;;;;;;31.20;32.47;99963.14;1744422;79;20149;-80
2021/06/09 11:21:24;;;;;;;;;;;;;;;30.85;32.96;99959.72;1707153;81;20151;-78
2021/06/09 11:23:56;;;;;;;;;;;;;;;31.16;32.67;99958.00;1709372;82;20236;-78
2021/06/09 11:26:28;;;;;;;;;;;;;;;31.21;32.72;99958.45;1702462;82;20563;-79
2021/06/09 11:28:55;;;;;;;;;;;;;;;31.21;32.83;99962.04;1742545;81;20155;-79
2021/06/09 11:31:26;;;;;;;;;;;;;;;31.18;33.95;99966.80;1722738;82;20129;-78
2021/06/09 11:34:04;;;;;;;;;;;;;;;31.13;34.77;99959.98;1721742;82;20701;-79
2021/06/09 11:36:41;;;;;;;;;;;;;;;31.06;34.84;99962.33;1703598;80;20161;-78
2021/06/09 11:39:11;;;;;;;;;;;;;;;30.98;35.05;99954.77;1709100;81;20187;-78
2021/06/09 11:41:39;;;;;;;;;;;;;;;30.93;35.09;99953.45;1722021;82;20177;-76
2021/06/09 11:44:08;;;;;;;;;;;;;;;30.88;34.60;99948.02;1725993;81;20173;-78
2021/06/09 11:46:35;;;;;;;;;;;;;;;30.83;33.41;99949.75;1718899;80;20163;-78
2021/06/09 11:49:05;;;;;;;;;;;;;;;30.81;32.85;99953.97;1726244;81;20504;-78
2021/06/09 11:51:41;;;;;;;;;;;;;;;30.77;32.66;99952.94;1721559;80;20243;-78
2021/06/09 11:54:28;;;;;;;;;;;;;;;30.75;32.83;99950.48;1726315;81;20172;-77
2021/06/09 11:57:16;;;;;;;;;;;;;;;30.70;32.70;99942.23;1748114;79;20265;-77
2021/06/09 11:59:41;;;;;;;;;;;;;;;30.66;32.82;99939.84;1746294;81;20224;-76
2021/06/09 12:02:10;;;;;;;;;;;;;;;30.61;33.17;99931.61;1749074;79;20492;-76
2021/06/09 12:04:41;;;;;;;;;;;;;;;30.58;33.38;99930.86;1745856;79;20179;-76
2021/06/09 12:07:12;;;;;;;;;;;;;;;30.56;33.63;99927.00;1746948;79;20598;-77
2021/06/09 12:09:42;;;;;;;;;;;;;;;30.54;33.79;99925.68;1737148;80;20272;-78
2021/06/09 12:12:21;;;;;;;;;;;;;;;30.38;34.12;99923.73;1728418;81;20545;-77
2021/06/09 12:14:50;;;;;;;;;;;;;;;30.47;33.82;99919.72;1748674;79;20183;-78
2021/06/09 12:17:36;;;;;;;;;;;;;;;30.46;34.08;99918.08;1749112;79;20249;-77
2021/06/09 12:20:12;;;;;;;;;;;;;;;30.46;34.24;99910.61;1747768;80;20141;-77
2021/06/09 12:22:42;;;;;;;;;;;;;;;30.42;34.04;99911.52;1749248;79;20566;-78
2021/06/09 12:25:12;;;;;;;;;;;;;;;30.36;34.23;99907.22;1744020;80;20197;-78
2021/06/09 12:27:40;;;;;;;;;;;;;;;30.42;34.00;99905.99;1745103;79;20171;-79
2021/06/09 12:30:22;;;;;;;;;;;;;;;30.42;34.01;99904.61;1746965;81;20194;-78
2021/06/09 12:33:01;;;;;;;;;;;;;;;30.43;34.14;99906.24;1741584;79;20179;-77
2021/06/09 12:35:20;;;;;;;;;;;;;;;30.43;33.90;99907.63;1745096;80;20199;-77
2021/06/09 12:37:48;;;;;;;;;;;;;;;30.42;33.58;99904.05;1749506;81;20141;-76
2021/06/09 12:40:21;;;;;;;;;;;;;;;30.40;33.55;99898.58;1750443;80;20182;-76
2021/06/09 12:42:49;;;;;;;;;;;;;;;30.39;33.65;99896.92;1744971;79;20181;-77
2021/06/09 12:45:23;;;;;;;;;;;;;;;30.39;33.83;99894.16;1750894;79;20183;-79
2021/06/09 12:47:47;;;;;;;;;;;;;;;30.40;33.78;99902.16;1745320;80;20179;-78
2021/06/09 12:50:29;;;;;;;;;;;;;;;30.40;33.32;99902.16;1747119;79;20186;-77
2021/06/09 12:52:57;;;;;;;;;;;;;;;30.40;33.29;99906.88;1742401;80;20186;-78
2021/06/09 12:55:29;;;;;;;;;;;;;;;30.39;33.12;99903.83;1748758;80;20283;-79